sensor_id;sensor_type;location;lat;lon;timestamp;temperature;humidity
22629;DHT22;11481;53.694;9.910;2022-09-09T00:01:08;16.00;99.90
22629;DHT22;11481;53.694;9.910;2022-09-09T00:03:47;16.00;99.90
22629;DHT22;11481;53.694;9.910;2022-09-09T00:06:28;16.00;99.90
22629;DHT22;11481;53.694;9.910;2022-09-09T00:09:04;16.00;99.90
22629;DHT22;11481;53.694;9.910;2022-09-09T00:11:43;15.90;99.90
22629;DHT22;11481;53.694;9.910;2022-09-09T00:16:55;15.90;99.90
22629;DHT22;11481;53.694;9.910;2022-09-09T00:19:33;16.00;99.90
22629;DHT22;11481;53.694;9.910;2022-09-09T00:22:13;16.00;99.90
22629;DHT22;11481;53.694;9.910;2022-09-09T00:24:47;16.10;99.90
22629;DHT22;11481;53.694;9.910;2022-09-09T00:27:34;16.10;99.90
22629;DHT22;11481;53.694;9.910;2022-09-09T00:32:45;16.20;99.90
22629;DHT22;11481;53.694;9.910;2022-09-09T00:35:22;16.20;99.90
22629;DHT22;11481;53.694;9.910;2022-09-09T00:37:53;16.10;99.90
22629;DHT22;11481;53.694;9.910;2022-09-09T00:40:25;16.00;99.90
22629;DHT22;11481;53.694;9.910;2022-09-09T00:43:07;16.10;99.90
22629;DHT22;11481;53.694;9.910;2022-09-09T00:49:36;16.20;99.90
22629;DHT22;11481;53.694;9.910;2022-09-09T00:52:08;16.30;99.90
22629;DHT22;11481;53.694;9.910;2022-09-09T00:57:21;16.30;99.90
22629;DHT22;11481;53.694;9.910;2022-09-09T01:02:29;16.30;99.90
22629;DHT22;11481;53.694;9.910;2022-09-09T01:05:05;16.30;99.90
22629;DHT22;11481;53.694;9.910;2022-09-09T01:07:33;16.20;99.90
22629;DHT22;11481;53.694;9.910;2022-09-09T01:10:06;16.20;99.90
22629;DHT22;11481;53.694;9.910;2022-09-09T01:12:42;16.20;99.90
22629;DHT22;11481;53.694;9.910;2022-09-09T01:15:22;16.30;99.90
22629;DHT22;11481;53.694;9.910;2022-09-09T01:18:05;16.30;99.90
22629;DHT22;11481;53.694;9.910;2022-09-09T01:20:45;16.30;99.90
22629;DHT22;11481;53.694;9.910;2022-09-09T01:28:43;16.40;99.90
22629;DHT22;11481;53.694;9.910;2022-09-09T01:31:17;16.30;99.90
22629;DHT22;11481;53.694;9.910;2022-09-09T01:33:44;16.40;99.90
22629;DHT22;11481;53.694;9.910;2022-09-09T01:38:37;16.30;99.90
22629;DHT22;11481;53.694;9.910;2022-09-09T01:41:04;16.30;99.90
22629;DHT22;11481;53.694;9.910;2022-09-09T01:43:31;16.20;99.90
22629;DHT22;11481;53.694;9.910;2022-09-09T01:46:00;16.30;99.90
22629;DHT22;11481;53.694;9.910;2022-09-09T01:48:27;16.30;99.90
22629;DHT22;11481;53.694;9.910;2022-09-09T01:50:54;16.30;99.90
22629;DHT22;11481;53.694;9.910;2022-09-09T01:53:21;16.30;99.90
22629;DHT22;11481;53.694;9.910;2022-09-09T01:56:07;16.30;99.90
22629;DHT22;11481;53.694;9.910;2022-09-09T02:04:09;16.40;99.90
22629;DHT22;11481;53.694;9.910;2022-09-09T02:06:40;16.40;99.90
22629;DHT22;11481;53.694;9.910;2022-09-09T02:09:10;16.40;99.90
22629;DHT22;11481;53.694;9.910;2022-09-09T02:11:38;16.30;99.90
22629;DHT22;11481;53.694;9.910;2022-09-09T02:14:12;16.30;99.90
22629;DHT22;11481;53.694;9.910;2022-09-09T02:17:01;16.30;99.90
22629;DHT22;11481;53.694;9.910;2022-09-09T02:19:32;16.30;99.90
22629;DHT22;11481;53.694;9.910;2022-09-09T02:22:01;16.20;99.90
22629;DHT22;11481;53.694;9.910;2022-09-09T02:24:30;16.20;99.90
22629;DHT22;11481;53.694;9.910;2022-09-09T02:27:02;16.30;99.90
22629;DHT22;11481;53.694;9.910;2022-09-09T02:29:34;16.20;99.90
22629;DHT22;11481;53.694;9.910;2022-09-09T02:32:06;16.20;99.90
22629;DHT22;11481;53.694;9.910;2022-09-09T02:34:37;16.20;99.90
22629;DHT22;11481;53.694;9.910;2022-09-09T02:37:08;16.30;99.90
22629;DHT22;11481;53.694;9.910;2022-09-09T02:39:35;16.30;99.90
22629;DHT22;11481;53.694;9.910;2022-09-09T02:42:04;16.30;99.90
22629;DHT22;11481;53.694;9.910;2022-09-09T02:44:31;16.30;99.90
22629;DHT22;11481;53.694;9.910;2022-09-09T02:47:15;16.30;99.90
22629;DHT22;11481;53.694;9.910;2022-09-09T02:50:02;16.30;99.90
22629;DHT22;11481;53.694;9.910;2022-09-09T02:55:09;16.30;99.90
22629;DHT22;11481;53.694;9.910;2022-09-09T02:57:39;16.30;99.90
22629;DHT22;11481;53.694;9.910;2022-09-09T03:00:08;16.30;99.90
22629;DHT22;11481;53.694;9.910;2022-09-09T03:02:34;16.40;99.90
22629;DHT22;11481;53.694;9.910;2022-09-09T03:05:01;16.30;99.90
22629;DHT22;11481;53.694;9.910;2022-09-09T03:07:28;16.30;99.90
22629;DHT22;11481;53.694;9.910;2022-09-09T03:09:54;16.30;99.90
22629;DHT22;11481;53.694;9.910;2022-09-09T03:12:21;16.30;99.90
22629;DHT22;11481;53.694;9.910;2022-09-09T03:14:48;16.20;99.90
22629;DHT22;11481;53.694;9.910;2022-09-09T03:17:15;16.20;99.90
22629;DHT22;11481;53.694;9.910;2022-09-09T03:19:41;16.20;99.90
22629;DHT22;11481;53.694;9.910;2022-09-09T03:22:10;16.10;99.90
22629;DHT22;11481;53.694;9.910;2022-09-09T03:24:36;16.10;99.90
22629;DHT22;11481;53.694;9.910;2022-09-09T03:27:03;16.10;99.90
22629;DHT22;11481;53.694;9.910;2022-09-09T03:29:30;16.10;99.90
22629;DHT22;11481;53.694;9.910;2022-09-09T03:31:56;16.10;99.90
22629;DHT22;11481;53.694;9.910;2022-09-09T03:34:23;16.00;99.90
22629;DHT22;11481;53.694;9.910;2022-09-09T03:36:50;16.00;99.90
22629;DHT22;11481;53.694;9.910;2022-09-09T03:39:16;16.00;99.90
22629;DHT22;11481;53.694;9.910;2022-09-09T03:41:43;16.00;99.90
22629;DHT22;11481;53.694;9.910;2022-09-09T03:44:12;16.00;99.90
22629;DHT22;11481;53.694;9.910;2022-09-09T03:46:39;16.00;99.90
22629;DHT22;11481;53.694;9.910;2022-09-09T03:49:06;16.00;99.90
22629;DHT22;11481;53.694;9.910;2022-09-09T03:51:32;16.00;99.90
22629;DHT22;11481;53.694;9.910;2022-09-09T03:54:03;15.90;99.90
22629;DHT22;11481;53.694;9.910;2022-09-09T03:56:31;15.90;99.90
22629;DHT22;11481;53.694;9.910;2022-09-09T03:58:58;15.90;99.90
22629;DHT22;11481;53.694;9.910;2022-09-09T04:01:24;15.90;99.90
22629;DHT22;11481;53.694;9.910;2022-09-09T04:03:51;15.90;99.90
22629;DHT22;11481;53.694;9.910;2022-09-09T04:06:19;16.00;99.90
22629;DHT22;11481;53.694;9.910;2022-09-09T04:08:47;16.00;99.90
22629;DHT22;11481;53.694;9.910;2022-09-09T04:11:15;16.00;99.90
22629;DHT22;11481;53.694;9.910;2022-09-09T04:13:43;16.00;99.90
22629;DHT22;11481;53.694;9.910;2022-09-09T04:16:12;15.90;99.90
22629;DHT22;11481;53.694;9.910;2022-09-09T04:18:42;15.90;99.90
22629;DHT22;11481;53.694;9.910;2022-09-09T04:21:09;15.80;99.90
22629;DHT22;11481;53.694;9.910;2022-09-09T04:23:38;15.80;99.90
22629;DHT22;11481;53.694;9.910;2022-09-09T04:26:05;15.80;99.90
22629;DHT22;11481;53.694;9.910;2022-09-09T04:28:34;15.80;99.90
22629;DHT22;11481;53.694;9.910;2022-09-09T04:31:10;15.80;99.90
22629;DHT22;11481;53.694;9.910;2022-09-09T04:33:40;15.80;99.90
22629;DHT22;11481;53.694;9.910;2022-09-09T04:36:07;15.70;99.90
22629;DHT22;11481;53.694;9.910;2022-09-09T04:38:34;15.60;99.90
22629;DHT22;11481;53.694;9.910;2022-09-09T04:41:01;15.60;99.90
22629;DHT22;11481;53.694;9.910;2022-09-09T04:43:28;15.60;99.90
22629;DHT22;11481;53.694;9.910;2022-09-09T04:45:57;15.70;99.90
22629;DHT22;11481;53.694;9.910;2022-09-09T04:48:24;15.60;99.90
22629;DHT22;11481;53.694;9.910;2022-09-09T04:51:02;15.60;99.90
22629;DHT22;11481;53.694;9.910;2022-09-09T04:53:31;15.60;99.90
22629;DHT22;11481;53.694;9.910;2022-09-09T04:56:12;15.60;99.90
22629;DHT22;11481;53.694;9.910;2022-09-09T04:58:40;15.70;99.90
22629;DHT22;11481;53.694;9.910;2022-09-09T05:01:13;15.60;99.90
22629;DHT22;11481;53.694;9.910;2022-09-09T05:03:40;15.70;99.90
22629;DHT22;11481;53.694;9.910;2022-09-09T05:06:11;15.70;99.90
22629;DHT22;11481;53.694;9.910;2022-09-09T05:08:39;15.80;99.90
22629;DHT22;11481;53.694;9.910;2022-09-09T05:11:21;15.80;99.90
22629;DHT22;11481;53.694;9.910;2022-09-09T05:13:51;15.80;99.90
22629;DHT22;11481;53.694;9.910;2022-09-09T05:16:18;15.80;99.90
22629;DHT22;11481;53.694;9.910;2022-09-09T05:18:45;15.80;99.90
22629;DHT22;11481;53.694;9.910;2022-09-09T05:21:20;15.80;99.90
22629;DHT22;11481;53.694;9.910;2022-09-09T05:23:47;15.80;99.90
22629;DHT22;11481;53.694;9.910;2022-09-09T05:26:16;15.70;99.90
22629;DHT22;11481;53.694;9.910;2022-09-09T05:28:44;15.60;99.90
22629;DHT22;11481;53.694;9.910;2022-09-09T05:31:12;15.60;99.90
22629;DHT22;11481;53.694;9.910;2022-09-09T05:33:41;15.70;99.90
22629;DHT22;11481;53.694;9.910;2022-09-09T05:36:11;15.60;99.90
22629;DHT22;11481;53.694;9.910;2022-09-09T05:38:40;15.60;99.90
22629;DHT22;11481;53.694;9.910;2022-09-09T05:41:08;15.70;99.90
22629;DHT22;11481;53.694;9.910;2022-09-09T05:43:36;15.70;99.90
22629;DHT22;11481;53.694;9.910;2022-09-09T05:46:08;15.70;99.90
22629;DHT22;11481;53.694;9.910;2022-09-09T05:48:40;15.70;99.90
22629;DHT22;11481;53.694;9.910;2022-09-09T05:51:09;15.70;99.90
22629;DHT22;11481;53.694;9.910;2022-09-09T05:53:37;15.70;99.90
22629;DHT22;11481;53.694;9.910;2022-09-09T05:56:05;15.70;99.90
22629;DHT22;11481;53.694;9.910;2022-09-09T05:58:32;15.70;99.90
22629;DHT22;11481;53.694;9.910;2022-09-09T06:01:13;15.70;99.90
22629;DHT22;11481;53.694;9.910;2022-09-09T06:03:41;15.80;99.90
22629;DHT22;11481;53.694;9.910;2022-09-09T06:06:11;15.80;99.90
22629;DHT22;11481;53.694;9.910;2022-09-09T06:08:40;15.90;99.90
22629;DHT22;11481;53.694;9.910;2022-09-09T06:11:09;15.90;99.90
22629;DHT22;11481;53.694;9.910;2022-09-09T06:13:37;15.90;99.90
22629;DHT22;11481;53.694;9.910;2022-09-09T06:16:06;15.90;99.90
22629;DHT22;11481;53.694;9.910;2022-09-09T06:18:34;15.90;99.90
22629;DHT22;11481;53.694;9.910;2022-09-09T06:21:03;16.00;99.90
22629;DHT22;11481;53.694;9.910;2022-09-09T06:23:33;16.00;99.90
22629;DHT22;11481;53.694;9.910;2022-09-09T06:26:10;16.00;99.90
22629;DHT22;11481;53.694;9.910;2022-09-09T06:28:37;16.10;99.90
22629;DHT22;11481;53.694;9.910;2022-09-09T06:31:07;16.10;99.90
22629;DHT22;11481;53.694;9.910;2022-09-09T06:33:35;16.10;99.90
22629;DHT22;11481;53.694;9.910;2022-09-09T06:36:03;16.20;99.90
22629;DHT22;11481;53.694;9.910;2022-09-09T06:38:30;16.20;99.90
22629;DHT22;11481;53.694;9.910;2022-09-09T06:40:58;16.20;99.90
22629;DHT22;11481;53.694;9.910;2022-09-09T06:43:26;16.20;99.90
22629;DHT22;11481;53.694;9.910;2022-09-09T06:46:11;16.20;99.90
22629;DHT22;11481;53.694;9.910;2022-09-09T06:48:42;16.20;99.90
22629;DHT22;11481;53.694;9.910;2022-09-09T06:51:12;16.20;99.90
22629;DHT22;11481;53.694;9.910;2022-09-09T06:53:41;16.30;99.90
22629;DHT22;11481;53.694;9.910;2022-09-09T06:58:51;16.40;99.90
22629;DHT22;11481;53.694;9.910;2022-09-09T07:01:23;16.40;99.90
22629;DHT22;11481;53.694;9.910;2022-09-09T07:04:14;16.40;99.90
22629;DHT22;11481;53.694;9.910;2022-09-09T07:06:43;16.50;99.90
22629;DHT22;11481;53.694;9.910;2022-09-09T07:09:12;16.60;99.90
22629;DHT22;11481;53.694;9.910;2022-09-09T07:11:45;16.50;99.90
22629;DHT22;11481;53.694;9.910;2022-09-09T07:14:12;16.60;99.90
22629;DHT22;11481;53.694;9.910;2022-09-09T07:16:41;16.60;99.90
22629;DHT22;11481;53.694;9.910;2022-09-09T07:19:09;16.60;99.90
22629;DHT22;11481;53.694;9.910;2022-09-09T07:21:36;16.70;99.90
22629;DHT22;11481;53.694;9.910;2022-09-09T07:24:03;16.60;99.90
22629;DHT22;11481;53.694;9.910;2022-09-09T07:26:34;16.70;99.90
22629;DHT22;11481;53.694;9.910;2022-09-09T07:29:00;16.80;99.90
22629;DHT22;11481;53.694;9.910;2022-09-09T07:31:29;16.90;99.90
22629;DHT22;11481;53.694;9.910;2022-09-09T07:33:59;16.90;99.90
22629;DHT22;11481;53.694;9.910;2022-09-09T07:36:28;17.00;99.90
22629;DHT22;11481;53.694;9.910;2022-09-09T07:39:07;16.90;99.90
22629;DHT22;11481;53.694;9.910;2022-09-09T07:41:38;17.00;99.90
22629;DHT22;11481;53.694;9.910;2022-09-09T07:44:07;17.00;99.90
22629;DHT22;11481;53.694;9.910;2022-09-09T07:46:35;16.90;99.90
22629;DHT22;11481;53.694;9.910;2022-09-09T07:49:02;17.00;99.90
22629;DHT22;11481;53.694;9.910;2022-09-09T07:51:32;16.90;99.90
22629;DHT22;11481;53.694;9.910;2022-09-09T07:54:02;17.00;99.90
22629;DHT22;11481;53.694;9.910;2022-09-09T07:56:30;17.10;99.90
22629;DHT22;11481;53.694;9.910;2022-09-09T07:58:59;17.10;99.90
22629;DHT22;11481;53.694;9.910;2022-09-09T08:01:32;17.20;99.90
22629;DHT22;11481;53.694;9.910;2022-09-09T08:04:02;17.10;99.90
22629;DHT22;11481;53.694;9.910;2022-09-09T08:06:36;17.20;99.90
22629;DHT22;11481;53.694;9.910;2022-09-09T08:09:06;17.30;99.90
22629;DHT22;11481;53.694;9.910;2022-09-09T08:11:34;17.20;99.90
22629;DHT22;11481;53.694;9.910;2022-09-09T08:14:05;17.20;99.90
22629;DHT22;11481;53.694;9.910;2022-09-09T08:16:36;17.30;99.90
22629;DHT22;11481;53.694;9.910;2022-09-09T08:19:03;17.40;99.90
22629;DHT22;11481;53.694;9.910;2022-09-09T08:21:31;17.50;99.90
22629;DHT22;11481;53.694;9.910;2022-09-09T08:23:59;17.40;99.90
22629;DHT22;11481;53.694;9.910;2022-09-09T08:26:34;17.50;99.90
22629;DHT22;11481;53.694;9.910;2022-09-09T08:29:04;17.60;99.90
22629;DHT22;11481;53.694;9.910;2022-09-09T08:31:33;17.60;99.90
22629;DHT22;11481;53.694;9.910;2022-09-09T08:34:00;17.50;99.90
22629;DHT22;11481;53.694;9.910;2022-09-09T08:36:29;17.50;99.90
22629;DHT22;11481;53.694;9.910;2022-09-09T08:38:57;17.50;99.90
22629;DHT22;11481;53.694;9.910;2022-09-09T08:52:37;17.60;99.90
22629;DHT22;11481;53.694;9.910;2022-09-09T08:55:25;17.60;99.90
22629;DHT22;11481;53.694;9.910;2022-09-09T08:57:55;17.70;99.90
22629;DHT22;11481;53.694;9.910;2022-09-09T09:00:30;17.70;99.90
22629;DHT22;11481;53.694;9.910;2022-09-09T09:03:06;17.90;99.90
22629;DHT22;11481;53.694;9.910;2022-09-09T09:05:46;17.90;99.90
22629;DHT22;11481;53.694;9.910;2022-09-09T09:09:05;17.90;99.90
22629;DHT22;11481;53.694;9.910;2022-09-09T09:11:09;17.90;99.90
22629;DHT22;11481;53.694;9.910;2022-09-09T09:16:19;18.10;99.90
22629;DHT22;11481;53.694;9.910;2022-09-09T09:18:48;18.20;99.90
22629;DHT22;11481;53.694;9.910;2022-09-09T09:21:34;18.20;99.90
22629;DHT22;11481;53.694;9.910;2022-09-09T09:24:09;18.30;99.90
22629;DHT22;11481;53.694;9.910;2022-09-09T09:26:38;18.30;99.90
22629;DHT22;11481;53.694;9.910;2022-09-09T09:29:13;18.40;99.90
22629;DHT22;11481;53.694;9.910;2022-09-09T09:31:56;18.50;99.90
22629;DHT22;11481;53.694;9.910;2022-09-09T09:34:25;18.40;99.90
22629;DHT22;11481;53.694;9.910;2022-09-09T09:36:59;18.50;99.90
22629;DHT22;11481;53.694;9.910;2022-09-09T09:39:33;18.50;99.90
22629;DHT22;11481;53.694;9.910;2022-09-09T09:42:25;18.60;99.90
22629;DHT22;11481;53.694;9.910;2022-09-09T09:44:52;18.70;99.90
22629;DHT22;11481;53.694;9.910;2022-09-09T09:47:21;18.90;99.90
22629;DHT22;11481;53.694;9.910;2022-09-09T09:49:57;18.90;99.90
22629;DHT22;11481;53.694;9.910;2022-09-09T09:52:27;19.00;99.90
22629;DHT22;11481;53.694;9.910;2022-09-09T09:54:56;18.90;99.90
22629;DHT22;11481;53.694;9.910;2022-09-09T09:57:28;18.80;99.90
22629;DHT22;11481;53.694;9.910;2022-09-09T10:00:12;18.80;99.90
22629;DHT22;11481;53.694;9.910;2022-09-09T10:02:41;18.90;99.90
22629;DHT22;11481;53.694;9.910;2022-09-09T10:05:30;18.80;99.90
22629;DHT22;11481;53.694;9.910;2022-09-09T10:08:08;18.80;99.90
22629;DHT22;11481;53.694;9.910;2022-09-09T10:14:05;19.20;99.90
22629;DHT22;11481;53.694;9.910;2022-09-09T10:16:40;19.30;99.90
22629;DHT22;11481;53.694;9.910;2022-09-09T10:21:57;19.60;99.90
22629;DHT22;11481;53.694;9.910;2022-09-09T10:24:45;19.70;99.90
22629;DHT22;11481;53.694;9.910;2022-09-09T10:30:20;19.80;99.90
22629;DHT22;11481;53.694;9.910;2022-09-09T10:33:03;19.90;99.90
22629;DHT22;11481;53.694;9.910;2022-09-09T10:46:17;20.40;99.90
22629;DHT22;11481;53.694;9.910;2022-09-09T10:51:42;20.60;99.90
22629;DHT22;11481;53.694;9.910;2022-09-09T10:54:40;20.60;99.90
22629;DHT22;11481;53.694;9.910;2022-09-09T11:00:31;20.60;99.90
22629;DHT22;11481;53.694;9.910;2022-09-09T11:03:03;20.80;99.90
22629;DHT22;11481;53.694;9.910;2022-09-09T11:08:06;21.00;99.90
22629;DHT22;11481;53.694;9.910;2022-09-09T11:13:23;21.10;99.90
22629;DHT22;11481;53.694;9.910;2022-09-09T11:18:44;21.20;99.90
22629;DHT22;11481;53.694;9.910;2022-09-09T11:21:20;21.30;99.90
22629;DHT22;11481;53.694;9.910;2022-09-09T11:23:55;21.30;99.90
22629;DHT22;11481;53.694;9.910;2022-09-09T11:26:35;21.30;99.90
22629;DHT22;11481;53.694;9.910;2022-09-09T11:31:43;21.40;99.90
22629;DHT22;11481;53.694;9.910;2022-09-09T11:34:37;21.40;99.90
22629;DHT22;11481;53.694;9.910;2022-09-09T11:42:32;21.60;99.90
22629;DHT22;11481;53.694;9.910;2022-09-09T11:45:30;21.60;99.90
22629;DHT22;11481;53.694;9.910;2022-09-09T11:47:59;21.70;99.90
22629;DHT22;11481;53.694;9.910;2022-09-09T11:53:05;21.70;99.90
22629;DHT22;11481;53.694;9.910;2022-09-09T11:55:33;21.80;99.90
22629;DHT22;11481;53.694;9.910;2022-09-09T11:58:05;22.00;99.90
22629;DHT22;11481;53.694;9.910;2022-09-09T12:02:59;22.40;99.90
22629;DHT22;11481;53.694;9.910;2022-09-09T12:05:40;22.50;99.90
22629;DHT22;11481;53.694;9.910;2022-09-09T12:08:11;22.60;99.90
22629;DHT22;11481;53.694;9.910;2022-09-09T12:10:53;22.60;99.90
22629;DHT22;11481;53.694;9.910;2022-09-09T12:13:25;22.60;99.90
22629;DHT22;11481;53.694;9.910;2022-09-09T12:15:55;22.60;99.90
22629;DHT22;11481;53.694;9.910;2022-09-09T12:18:35;22.60;99.90
22629;DHT22;11481;53.694;9.910;2022-09-09T12:21:26;22.60;99.90
22629;DHT22;11481;53.694;9.910;2022-09-09T12:24:03;22.70;99.90
22629;DHT22;11481;53.694;9.910;2022-09-09T12:37:35;22.50;99.90
22629;DHT22;11481;53.694;9.910;2022-09-09T12:40:29;22.50;99.90
22629;DHT22;11481;53.694;9.910;2022-09-09T12:42:54;22.50;99.90
22629;DHT22;11481;53.694;9.910;2022-09-09T12:45:27;22.50;99.90
22629;DHT22;11481;53.694;9.910;2022-09-09T12:48:10;22.70;99.90
22629;DHT22;11481;53.694;9.910;2022-09-09T12:50:50;22.60;99.90
22629;DHT22;11481;53.694;9.910;2022-09-09T12:53:30;22.70;99.90
22629;DHT22;11481;53.694;9.910;2022-09-09T12:56:06;22.60;99.90
22629;DHT22;11481;53.694;9.910;2022-09-09T12:58:36;22.40;99.90
22629;DHT22;11481;53.694;9.910;2022-09-09T13:01:05;22.40;99.90
22629;DHT22;11481;53.694;9.910;2022-09-09T13:03:43;22.30;99.90
22629;DHT22;11481;53.694;9.910;2022-09-09T13:06:20;22.30;99.90
22629;DHT22;11481;53.694;9.910;2022-09-09T13:08:55;22.40;99.90
22629;DHT22;11481;53.694;9.910;2022-09-09T13:13:56;22.50;99.90
22629;DHT22;11481;53.694;9.910;2022-09-09T13:16:30;22.60;99.90
22629;DHT22;11481;53.694;9.910;2022-09-09T13:19:07;22.50;99.90
22629;DHT22;11481;53.694;9.910;2022-09-09T13:21:39;22.40;99.90
22629;DHT22;11481;53.694;9.910;2022-09-09T13:24:31;22.20;99.90
22629;DHT22;11481;53.694;9.910;2022-09-09T13:27:03;22.10;99.90
22629;DHT22;11481;53.694;9.910;2022-09-09T13:29:32;22.00;99.90
22629;DHT22;11481;53.694;9.910;2022-09-09T13:32:07;21.70;99.90
22629;DHT22;11481;53.694;9.910;2022-09-09T13:34:39;21.80;99.90
22629;DHT22;11481;53.694;9.910;2022-09-09T13:37:09;21.80;99.90
22629;DHT22;11481;53.694;9.910;2022-09-09T13:39:51;21.70;99.90
22629;DHT22;11481;53.694;9.910;2022-09-09T13:42:26;20.80;99.90
22629;DHT22;11481;53.694;9.910;2022-09-09T13:44:53;20.20;99.90
22629;DHT22;11481;53.694;9.910;2022-09-09T13:47:35;19.60;99.90
22629;DHT22;11481;53.694;9.910;2022-09-09T13:50:26;19.10;99.90
22629;DHT22;11481;53.694;9.910;2022-09-09T13:52:54;19.10;99.90
22629;DHT22;11481;53.694;9.910;2022-09-09T13:55:23;19.20;99.90
22629;DHT22;11481;53.694;9.910;2022-09-09T13:57:58;19.30;99.90
22629;DHT22;11481;53.694;9.910;2022-09-09T14:00:29;19.20;99.90
22629;DHT22;11481;53.694;9.910;2022-09-09T14:02:58;19.20;99.90
22629;DHT22;11481;53.694;9.910;2022-09-09T14:05:27;19.30;99.90
22629;DHT22;11481;53.694;9.910;2022-09-09T14:07:54;19.40;99.90
22629;DHT22;11481;53.694;9.910;2022-09-09T14:10:20;19.50;99.90
22629;DHT22;11481;53.694;9.910;2022-09-09T14:12:48;19.40;99.90
22629;DHT22;11481;53.694;9.910;2022-09-09T14:15:15;19.40;99.90
22629;DHT22;11481;53.694;9.910;2022-09-09T14:17:42;19.40;99.90
22629;DHT22;11481;53.694;9.910;2022-09-09T14:20:10;19.30;99.90
22629;DHT22;11481;53.694;9.910;2022-09-09T14:22:38;19.40;99.90
22629;DHT22;11481;53.694;9.910;2022-09-09T14:25:05;19.40;99.90
22629;DHT22;11481;53.694;9.910;2022-09-09T14:27:32;19.50;99.90
22629;DHT22;11481;53.694;9.910;2022-09-09T14:29:59;19.60;99.90
22629;DHT22;11481;53.694;9.910;2022-09-09T14:32:27;19.70;99.90
22629;DHT22;11481;53.694;9.910;2022-09-09T14:34:53;19.70;99.90
22629;DHT22;11481;53.694;9.910;2022-09-09T14:37:20;19.90;99.90
22629;DHT22;11481;53.694;9.910;2022-09-09T14:39:47;19.90;99.90
22629;DHT22;11481;53.694;9.910;2022-09-09T14:42:17;20.00;99.90
22629;DHT22;11481;53.694;9.910;2022-09-09T14:44:43;20.00;99.90
22629;DHT22;11481;53.694;9.910;2022-09-09T14:47:10;20.00;99.90
22629;DHT22;11481;53.694;9.910;2022-09-09T14:49:37;20.00;99.90
22629;DHT22;11481;53.694;9.910;2022-09-09T14:52:08;20.00;99.90
22629;DHT22;11481;53.694;9.910;2022-09-09T14:54:35;20.10;99.90
22629;DHT22;11481;53.694;9.910;2022-09-09T14:57:02;20.20;99.90
22629;DHT22;11481;53.694;9.910;2022-09-09T14:59:28;20.20;99.90
22629;DHT22;11481;53.694;9.910;2022-09-09T15:01:55;20.20;99.90
22629;DHT22;11481;53.694;9.910;2022-09-09T15:04:22;20.20;99.90
22629;DHT22;11481;53.694;9.910;2022-09-09T15:06:53;20.30;99.90
22629;DHT22;11481;53.694;9.910;2022-09-09T15:09:20;20.40;99.90
22629;DHT22;11481;53.694;9.910;2022-09-09T15:11:47;20.50;99.90
22629;DHT22;11481;53.694;9.910;2022-09-09T15:14:13;20.60;99.90
22629;DHT22;11481;53.694;9.910;2022-09-09T15:16:41;20.60;99.90
22629;DHT22;11481;53.694;9.910;2022-09-09T15:19:08;20.50;99.90
22629;DHT22;11481;53.694;9.910;2022-09-09T15:21:36;20.50;99.90
22629;DHT22;11481;53.694;9.910;2022-09-09T15:24:04;20.40;99.90
22629;DHT22;11481;53.694;9.910;2022-09-09T15:26:30;20.20;99.90
22629;DHT22;11481;53.694;9.910;2022-09-09T15:28:57;20.10;99.90
22629;DHT22;11481;53.694;9.910;2022-09-09T15:31:28;20.10;99.90
22629;DHT22;11481;53.694;9.910;2022-09-09T15:33:57;20.20;99.90
22629;DHT22;11481;53.694;9.910;2022-09-09T15:36:51;20.10;99.90
22629;DHT22;11481;53.694;9.910;2022-09-09T15:39:17;20.10;99.90
22629;DHT22;11481;53.694;9.910;2022-09-09T15:41:48;20.20;99.90
22629;DHT22;11481;53.694;9.910;2022-09-09T15:44:15;20.40;99.90
22629;DHT22;11481;53.694;9.910;2022-09-09T15:46:52;20.40;99.90
22629;DHT22;11481;53.694;9.910;2022-09-09T15:49:24;20.50;99.90
22629;DHT22;11481;53.694;9.910;2022-09-09T15:51:56;20.50;99.90
22629;DHT22;11481;53.694;9.910;2022-09-09T15:54:25;20.50;99.90
22629;DHT22;11481;53.694;9.910;2022-09-09T15:56:55;20.60;99.90
22629;DHT22;11481;53.694;9.910;2022-09-09T15:59:23;20.60;99.90
22629;DHT22;11481;53.694;9.910;2022-09-09T16:01:50;20.70;99.90
22629;DHT22;11481;53.694;9.910;2022-09-09T16:04:19;20.80;99.90
22629;DHT22;11481;53.694;9.910;2022-09-09T16:06:53;20.80;99.90
22629;DHT22;11481;53.694;9.910;2022-09-09T16:09:21;20.90;99.90
22629;DHT22;11481;53.694;9.910;2022-09-09T16:11:48;20.90;99.90
22629;DHT22;11481;53.694;9.910;2022-09-09T16:14:15;21.10;99.90
22629;DHT22;11481;53.694;9.910;2022-09-09T16:16:42;21.20;99.90
22629;DHT22;11481;53.694;9.910;2022-09-09T16:19:11;21.50;99.90
22629;DHT22;11481;53.694;9.910;2022-09-09T16:21:44;21.70;99.90
22629;DHT22;11481;53.694;9.910;2022-09-09T16:24:13;21.90;99.90
22629;DHT22;11481;53.694;9.910;2022-09-09T16:26:41;22.10;99.90
22629;DHT22;11481;53.694;9.910;2022-09-09T16:29:12;22.30;99.90
22629;DHT22;11481;53.694;9.910;2022-09-09T16:31:39;22.50;99.90
22629;DHT22;11481;53.694;9.910;2022-09-09T16:34:07;22.60;99.90
22629;DHT22;11481;53.694;9.910;2022-09-09T16:36:36;22.70;99.90
22629;DHT22;11481;53.694;9.910;2022-09-09T16:39:05;22.80;99.90
22629;DHT22;11481;53.694;9.910;2022-09-09T16:41:33;22.90;99.90
22629;DHT22;11481;53.694;9.910;2022-09-09T16:44:05;23.00;99.90
22629;DHT22;11481;53.694;9.910;2022-09-09T16:46:35;23.10;99.90
22629;DHT22;11481;53.694;9.910;2022-09-09T16:49:04;23.20;99.90
22629;DHT22;11481;53.694;9.910;2022-09-09T16:51:34;23.30;99.90
22629;DHT22;11481;53.694;9.910;2022-09-09T16:54:04;23.40;99.90
22629;DHT22;11481;53.694;9.910;2022-09-09T16:56:33;23.30;99.90
22629;DHT22;11481;53.694;9.910;2022-09-09T16:59:25;23.40;99.90
22629;DHT22;11481;53.694;9.910;2022-09-09T17:01:52;23.30;99.90
22629;DHT22;11481;53.694;9.910;2022-09-09T17:04:22;23.30;99.90
22629;DHT22;11481;53.694;9.910;2022-09-09T17:06:52;23.50;99.90
22629;DHT22;11481;53.694;9.910;2022-09-09T17:09:20;23.60;99.90
22629;DHT22;11481;53.694;9.910;2022-09-09T17:11:49;23.80;99.90
22629;DHT22;11481;53.694;9.910;2022-09-09T17:14:20;23.90;99.90
22629;DHT22;11481;53.694;9.910;2022-09-09T17:16:48;23.90;99.90
22629;DHT22;11481;53.694;9.910;2022-09-09T17:19:15;23.90;99.90
22629;DHT22;11481;53.694;9.910;2022-09-09T17:21:42;23.90;99.90
22629;DHT22;11481;53.694;9.910;2022-09-09T17:24:28;23.80;99.90
22629;DHT22;11481;53.694;9.910;2022-09-09T17:26:57;23.70;99.90
22629;DHT22;11481;53.694;9.910;2022-09-09T17:29:24;23.60;99.90
22629;DHT22;11481;53.694;9.910;2022-09-09T17:31:51;23.40;99.90
22629;DHT22;11481;53.694;9.910;2022-09-09T17:34:18;23.30;99.90
22629;DHT22;11481;53.694;9.910;2022-09-09T17:36:45;23.20;99.90
22629;DHT22;11481;53.694;9.910;2022-09-09T17:39:11;23.00;99.90
22629;DHT22;11481;53.694;9.910;2022-09-09T17:41:39;22.90;99.90
22629;DHT22;11481;53.694;9.910;2022-09-09T17:44:07;22.80;99.90